createdAt,value
2023-05-19T00:00:23.949Z,0.00
2023-05-19T00:01:23.942Z,0.00
2023-05-19T00:02:23.923Z,0.00
2023-05-19T00:03:23.979Z,0.00
2023-05-19T00:04:23.900Z,0.00
2023-05-19T00:05:23.881Z,0.00
2023-05-19T00:06:23.867Z,0.00
2023-05-19T00:07:23.845Z,0.00
2023-05-19T00:08:23.891Z,0.00
2023-05-19T00:09:23.823Z,0.00
2023-05-19T00:10:23.802Z,0.00
2023-05-19T00:11:23.796Z,0.00
2023-05-19T00:12:23.777Z,0.00
2023-05-19T00:13:23.777Z,0.00
2023-05-19T00:14:23.821Z,0.00
2023-05-19T00:15:23.738Z,0.00
2023-05-19T00:16:23.850Z,0.00
2023-05-19T00:17:23.769Z,0.00
2023-05-19T00:18:23.702Z,0.00
2023-05-19T00:19:23.802Z,0.00
2023-05-19T00:20:23.663Z,0.00
2023-05-19T00:21:23.681Z,0.00
2023-05-19T00:22:23.664Z,0.00
2023-05-19T00:23:23.644Z,0.00
2023-05-19T00:24:23.663Z,0.00
2023-05-19T00:25:23.602Z,0.00
2023-05-19T00:26:23.581Z,0.00
2023-05-19T00:27:23.592Z,0.00
2023-05-19T00:28:23.579Z,0.00
2023-05-19T00:29:23.564Z,0.00
2023-05-19T00:30:23.558Z,0.00
2023-05-19T00:31:23.583Z,0.00
2023-05-19T00:32:23.544Z,0.00
2023-05-19T00:33:23.525Z,0.00
2023-05-19T00:34:23.514Z,0.00
2023-05-19T00:35:23.484Z,0.00
2023-05-19T00:36:23.459Z,0.00
2023-05-19T00:37:23.458Z,0.00
2023-05-19T00:38:23.441Z,0.00
2023-05-19T00:39:23.492Z,0.00
2023-05-19T00:40:23.421Z,0.00
2023-05-19T00:41:23.407Z,0.00
2023-05-19T00:42:23.410Z,0.00
2023-05-19T00:43:23.383Z,0.00
2023-05-19T00:44:23.410Z,0.00
2023-05-19T00:45:23.357Z,0.00
2023-05-19T00:46:23.379Z,0.00
2023-05-19T00:47:23.325Z,0.00
2023-05-19T00:48:23.300Z,0.00
2023-05-19T00:49:23.293Z,0.00
2023-05-19T00:50:23.295Z,0.00
2023-05-19T00:51:23.272Z,0.00
2023-05-19T00:52:23.262Z,0.00
2023-05-19T00:53:23.268Z,0.00
2023-05-19T00:54:23.239Z,0.00
2023-05-19T00:55:23.225Z,0.00
2023-05-19T00:56:23.241Z,0.00
2023-05-19T00:57:23.194Z,0.00
2023-05-19T00:58:23.185Z,0.00
2023-05-19T00:59:23.150Z,0.00
2023-05-19T01:00:23.151Z,0.00
2023-05-19T01:01:23.192Z,0.00
2023-05-19T01:02:23.216Z,0.00
2023-05-19T01:03:23.304Z,0.00
2023-05-19T01:04:23.112Z,0.00
2023-05-19T01:05:23.073Z,0.00
2023-05-19T01:06:23.062Z,0.00
2023-05-19T01:07:23.053Z,0.00
2023-05-19T01:08:23.060Z,0.00
2023-05-19T01:09:23.039Z,0.00
2023-05-19T01:10:23.048Z,0.00
2023-05-19T01:11:23.022Z,0.00
2023-05-19T01:12:22.999Z,0.00
2023-05-19T01:13:22.985Z,0.00
2023-05-19T01:14:22.967Z,0.00
2023-05-19T01:15:22.944Z,0.00
2023-05-19T01:16:23.040Z,0.00
2023-05-19T01:17:22.943Z,0.00
2023-05-19T01:18:22.920Z,0.00
2023-05-19T01:19:22.936Z,0.00
2023-05-19T01:20:22.911Z,0.00
2023-05-19T01:21:22.876Z,0.00
2023-05-19T01:22:22.970Z,0.00
2023-05-19T01:23:22.869Z,0.00
2023-05-19T01:24:22.893Z,0.00
2023-05-19T01:25:22.841Z,0.00
2023-05-19T01:26:22.813Z,0.00
2023-05-19T01:27:22.828Z,0.00
2023-05-19T01:28:22.795Z,0.00
2023-05-19T01:29:22.770Z,0.00
2023-05-19T01:30:22.753Z,0.00
2023-05-19T01:31:22.771Z,0.00
2023-05-19T01:32:22.779Z,0.00
2023-05-19T01:33:22.722Z,0.00
2023-05-19T01:34:22.727Z,0.00
2023-05-19T01:35:22.709Z,0.00
2023-05-19T01:36:22.721Z,0.00
2023-05-19T01:37:22.664Z,0.00
2023-05-19T01:38:22.670Z,0.00
2023-05-19T01:39:22.652Z,0.00
2023-05-19T01:40:22.643Z,0.00
2023-05-19T01:41:22.626Z,0.00
2023-05-19T01:42:22.624Z,0.00
2023-05-19T01:43:22.580Z,0.00
2023-05-19T01:44:22.578Z,0.00
2023-05-19T01:45:22.586Z,0.00
2023-05-19T01:46:22.573Z,0.00
2023-05-19T01:47:22.555Z,0.00
2023-05-19T01:48:22.554Z,0.00
2023-05-19T01:49:22.523Z,0.00
2023-05-19T01:50:22.545Z,0.00
2023-05-19T01:51:22.493Z,0.00
2023-05-19T01:52:22.486Z,0.00
2023-05-19T01:53:22.456Z,0.00
2023-05-19T01:54:22.472Z,0.00
2023-05-19T01:55:22.442Z,0.00
2023-05-19T01:56:22.433Z,0.00
2023-05-19T01:57:22.439Z,0.00
2023-05-19T01:58:22.398Z,0.00
2023-05-19T01:59:22.396Z,0.00
2023-05-19T02:00:22.382Z,0.00
2023-05-19T02:01:22.421Z,0.00
2023-05-19T02:02:22.349Z,0.00
2023-05-19T02:03:22.349Z,0.00
2023-05-19T02:04:22.327Z,0.00
2023-05-19T02:05:22.336Z,0.00
2023-05-19T02:06:22.321Z,0.00
2023-05-19T02:07:22.298Z,0.00
2023-05-19T02:08:22.290Z,0.00
2023-05-19T02:09:22.260Z,0.00
2023-05-19T02:10:22.245Z,0.00
2023-05-19T02:11:22.262Z,0.00
2023-05-19T02:12:22.224Z,0.00
2023-05-19T02:13:22.208Z,0.00
2023-05-19T02:14:22.223Z,0.00
2023-05-19T02:15:22.192Z,0.00
2023-05-19T02:16:22.204Z,0.00
2023-05-19T02:17:22.199Z,0.00
2023-05-19T02:18:22.150Z,0.00
2023-05-19T02:19:22.237Z,0.00
2023-05-19T02:20:22.229Z,0.00
2023-05-19T02:21:22.097Z,0.00
2023-05-19T02:22:22.096Z,0.00
2023-05-19T02:23:22.095Z,0.00
2023-05-19T02:24:22.061Z,0.00
2023-05-19T02:25:22.058Z,0.00
2023-05-19T02:26:22.031Z,0.00
2023-05-19T02:27:22.032Z,0.00
2023-05-19T02:28:22.007Z,4.00
2023-05-19T02:29:22.023Z,4.00
2023-05-19T02:30:21.987Z,4.00
2023-05-19T02:31:22.041Z,0.00
2023-05-19T02:32:21.957Z,4.00
2023-05-19T02:33:21.938Z,4.00
2023-05-19T02:34:21.936Z,4.00
2023-05-19T02:35:21.933Z,4.00
2023-05-19T02:36:21.899Z,4.00
2023-05-19T02:37:21.885Z,4.00
2023-05-19T02:38:21.904Z,4.00
2023-05-19T02:39:21.860Z,4.00
2023-05-19T02:40:21.865Z,8.00
2023-05-19T02:41:21.848Z,4.00
2023-05-19T02:42:21.860Z,8.00
2023-05-19T02:43:21.822Z,8.00
2023-05-19T02:44:21.822Z,8.00
2023-05-19T02:45:21.779Z,12.00
2023-05-19T02:46:21.909Z,12.00
2023-05-19T02:47:21.803Z,12.00
2023-05-19T02:48:21.758Z,16.00
2023-05-19T02:49:21.756Z,16.00
2023-05-19T02:50:21.724Z,24.00
2023-05-19T02:51:21.717Z,24.00
2023-05-19T02:52:21.726Z,28.00
2023-05-19T02:53:21.713Z,32.00
2023-05-19T02:54:21.688Z,36.00
2023-05-19T02:55:21.672Z,40.00
2023-05-19T02:56:21.690Z,40.00
2023-05-19T02:57:21.645Z,48.00
2023-05-19T02:58:21.640Z,56.00
2023-05-19T02:59:21.932Z,56.00
2023-05-19T03:00:21.603Z,64.00
2023-05-19T03:01:21.625Z,72.00
2023-05-19T03:02:21.583Z,76.00
2023-05-19T03:03:28.705Z,84.00
2023-05-19T03:04:21.553Z,88.00
2023-05-19T03:05:21.558Z,96.00
2023-05-19T03:06:21.516Z,104.00
2023-05-19T03:07:21.551Z,116.00
2023-05-19T03:08:21.527Z,124.00
2023-05-19T03:09:21.478Z,132.00
2023-05-19T03:10:21.465Z,144.00
2023-05-19T03:11:21.471Z,156.00
2023-05-19T03:12:21.460Z,168.00
2023-05-19T03:13:21.446Z,180.00
2023-05-19T03:14:21.418Z,196.00
2023-05-19T03:15:21.417Z,212.00
2023-05-19T03:16:21.432Z,224.00
2023-05-19T03:17:28.507Z,244.00
2023-05-19T03:18:21.390Z,260.00
2023-05-19T03:19:21.491Z,276.00
2023-05-19T03:20:21.355Z,292.00
2023-05-19T03:21:21.339Z,308.00
2023-05-19T03:22:21.379Z,328.00
2023-05-19T03:23:21.302Z,344.00
2023-05-19T03:24:21.296Z,364.00
2023-05-19T03:25:21.292Z,380.00
2023-05-19T03:26:21.281Z,404.00
2023-05-19T03:27:21.276Z,424.00
2023-05-19T03:28:21.262Z,444.00
2023-05-19T03:29:21.242Z,464.00
2023-05-19T03:30:21.219Z,484.00
2023-05-19T03:31:21.228Z,508.00
2023-05-19T03:32:21.357Z,528.00
2023-05-19T03:33:21.261Z,552.00
2023-05-19T03:34:21.171Z,576.00
2023-05-19T03:35:21.183Z,600.00
2023-05-19T03:36:21.172Z,628.00
2023-05-19T03:37:21.137Z,652.00
2023-05-19T03:38:21.118Z,680.00
2023-05-19T03:39:21.114Z,716.00
2023-05-19T03:40:21.109Z,748.00
2023-05-19T03:41:21.087Z,780.00
2023-05-19T03:42:21.075Z,816.00
2023-05-19T03:43:21.063Z,852.00
2023-05-19T03:44:21.033Z,888.00
2023-05-19T03:45:21.030Z,924.00
2023-05-19T03:46:21.158Z,960.00
2023-05-19T03:47:21.006Z,996.00
2023-05-19T03:48:21.445Z,1028.00
2023-05-19T03:49:20.979Z,1068.00
2023-05-19T03:50:20.982Z,1104.00
2023-05-19T03:51:20.953Z,1148.00
2023-05-19T03:52:20.946Z,1192.00
2023-05-19T03:53:20.945Z,1236.00
2023-05-19T03:54:20.918Z,1280.00
2023-05-19T03:55:20.885Z,1328.00
2023-05-19T03:56:20.880Z,1372.00
2023-05-19T03:57:20.875Z,1420.00
2023-05-19T03:58:20.898Z,1464.00
2023-05-19T03:59:20.871Z,1512.00
2023-05-19T04:00:20.862Z,1556.00
2023-05-19T04:01:20.807Z,1596.00
2023-05-19T04:02:20.816Z,1636.00
2023-05-19T04:03:20.967Z,1672.00
2023-05-19T04:04:20.804Z,1708.00
2023-05-19T04:05:20.758Z,1740.00
2023-05-19T04:06:20.745Z,1776.00
2023-05-19T04:07:20.785Z,1812.00
2023-05-19T04:08:20.728Z,1844.00
2023-05-19T04:09:20.696Z,1876.00
2023-05-19T04:10:20.693Z,1912.00
2023-05-19T04:11:20.687Z,1944.00
2023-05-19T04:12:20.679Z,1972.00
2023-05-19T04:13:20.655Z,2008.00
2023-05-19T04:14:20.658Z,2036.00
2023-05-19T04:15:20.639Z,2064.00
2023-05-19T04:16:20.666Z,2084.00
2023-05-19T04:17:20.616Z,2108.00
2023-05-19T04:18:20.640Z,2128.00
2023-05-19T04:19:20.614Z,2148.00
2023-05-19T04:20:20.582Z,2176.00
2023-05-19T04:21:20.567Z,2208.00
2023-05-19T04:22:20.541Z,2240.00
2023-05-19T04:23:20.541Z,2264.00
2023-05-19T04:24:20.530Z,2284.00
2023-05-19T04:25:20.525Z,2316.00
2023-05-19T04:26:20.480Z,2320.00
2023-05-19T04:27:20.483Z,2344.00
2023-05-19T04:28:20.472Z,2360.00
2023-05-19T04:29:20.437Z,2384.00
2023-05-19T04:30:20.467Z,2396.00
2023-05-19T04:31:20.516Z,2428.00
2023-05-19T04:32:20.410Z,2440.00
2023-05-19T04:33:20.380Z,2468.00
2023-05-19T04:34:20.399Z,2496.00
2023-05-19T04:35:20.360Z,2520.00
2023-05-19T04:36:20.366Z,2548.00
2023-05-19T04:37:20.393Z,2588.00
2023-05-19T04:38:20.350Z,2620.00
2023-05-19T04:39:20.320Z,2628.00
2023-05-19T04:40:20.299Z,2656.00
2023-05-19T04:41:20.306Z,2660.00
2023-05-19T04:42:20.310Z,2688.00
2023-05-19T04:43:20.300Z,2692.00
2023-05-19T04:44:20.268Z,2692.00
2023-05-19T04:45:20.243Z,2684.00
2023-05-19T04:46:20.233Z,2692.00
2023-05-19T04:47:20.285Z,2692.00
2023-05-19T04:48:20.197Z,2704.00
2023-05-19T04:49:20.200Z,2712.00
2023-05-19T04:50:20.202Z,2716.00
2023-05-19T04:51:20.169Z,2716.00
2023-05-19T04:52:20.160Z,2736.00
2023-05-19T04:53:20.140Z,2764.00
2023-05-19T04:54:20.148Z,2792.00
2023-05-19T04:55:20.114Z,2812.00
2023-05-19T04:56:20.095Z,2844.00
2023-05-19T04:57:20.099Z,2868.00
2023-05-19T04:58:20.078Z,2888.00
2023-05-19T04:59:20.039Z,2880.00
2023-05-19T05:00:20.072Z,2920.00
2023-05-19T05:01:20.071Z,2952.00
2023-05-19T05:02:20.234Z,2964.00
2023-05-19T05:03:20.157Z,2964.00
2023-05-19T05:04:20.019Z,2980.00
2023-05-19T05:05:20.001Z,2980.00
2023-05-19T05:06:19.967Z,3004.00
2023-05-19T05:07:19.973Z,3012.00
2023-05-19T05:08:19.940Z,3056.00
2023-05-19T05:09:20.027Z,3076.00
2023-05-19T05:10:19.903Z,3080.00
2023-05-19T05:11:19.914Z,3096.00
2023-05-19T05:12:19.880Z,3092.00
2023-05-19T05:13:19.882Z,3088.00
2023-05-19T05:14:19.885Z,3108.00
2023-05-19T05:15:19.879Z,3120.00
2023-05-19T05:16:19.874Z,3156.00
2023-05-19T05:17:19.826Z,3188.00
2023-05-19T05:18:19.797Z,3216.00
2023-05-19T05:19:19.827Z,3236.00
2023-05-19T05:20:19.785Z,3232.00
2023-05-19T05:21:19.774Z,3236.00
2023-05-19T05:22:19.763Z,3208.00
2023-05-19T05:23:19.748Z,3180.00
2023-05-19T05:24:19.762Z,3192.00
2023-05-19T05:25:19.723Z,3176.00
2023-05-19T05:26:19.704Z,3168.00
2023-05-19T05:27:19.699Z,3304.00
2023-05-19T05:28:19.687Z,3304.00
2023-05-19T05:29:19.666Z,3304.00
2023-05-19T05:30:19.651Z,3340.00
2023-05-19T05:31:19.633Z,3364.00
2023-05-19T05:32:19.700Z,3392.00
2023-05-19T05:33:19.698Z,3316.00
2023-05-19T05:34:19.595Z,3440.00
2023-05-19T05:35:19.615Z,3536.00
2023-05-19T05:36:19.601Z,3644.00
2023-05-19T05:37:19.565Z,3716.00
2023-05-19T05:38:19.554Z,3740.00
2023-05-19T05:39:19.535Z,3784.00
2023-05-19T05:40:19.527Z,3816.00
2023-05-19T05:41:19.500Z,3856.00
2023-05-19T05:42:19.492Z,3888.00
2023-05-19T05:43:19.487Z,3872.00
2023-05-19T05:44:19.456Z,3896.00
2023-05-19T05:45:19.473Z,3932.00
2023-05-19T05:46:19.491Z,3848.00
2023-05-19T05:47:19.456Z,3788.00
2023-05-19T05:48:19.415Z,3996.00
2023-05-19T05:49:19.411Z,4020.00
2023-05-19T05:50:19.401Z,4084.00
2023-05-19T05:51:19.387Z,4160.00
2023-05-19T05:52:19.399Z,4248.00
2023-05-19T05:53:19.350Z,4332.00
2023-05-19T05:54:19.353Z,4416.00
2023-05-19T05:55:19.334Z,4476.00
2023-05-19T05:56:19.354Z,4520.00
2023-05-19T05:57:19.327Z,4544.00
2023-05-19T05:58:19.282Z,4584.00
2023-05-19T05:59:19.281Z,4596.00
2023-05-19T06:00:19.252Z,4676.00
2023-05-19T06:01:19.260Z,4704.00
2023-05-19T06:02:19.299Z,4720.00
2023-05-19T06:03:19.317Z,4768.00
2023-05-19T06:04:19.214Z,4828.00
2023-05-19T06:05:19.245Z,4856.00
2023-05-19T06:06:19.219Z,4844.00
2023-05-19T06:07:19.171Z,4860.00
2023-05-19T06:08:19.161Z,4892.00
2023-05-19T06:09:19.162Z,4872.00
2023-05-19T06:10:19.158Z,4836.00
2023-05-19T06:11:19.104Z,4824.00
2023-05-19T06:12:19.138Z,4808.00
2023-05-19T06:13:19.098Z,4820.00
2023-05-19T06:14:19.085Z,4820.00
2023-05-19T06:15:19.069Z,4800.00
2023-05-19T06:16:19.097Z,4776.00
2023-05-19T06:17:19.039Z,4760.00
2023-05-19T06:18:19.015Z,4784.00
2023-05-19T06:19:19.054Z,4764.00
2023-05-19T06:20:19.014Z,4744.00
2023-05-19T06:21:18.987Z,4748.00
2023-05-19T06:22:18.976Z,4752.00
2023-05-19T06:23:18.956Z,4748.00
2023-05-19T06:24:18.949Z,4728.00
2023-05-19T06:25:18.936Z,4676.00
2023-05-19T06:26:18.959Z,4664.00
2023-05-19T06:27:18.942Z,4672.00
2023-05-19T06:28:18.901Z,4696.00
2023-05-19T06:29:18.894Z,4712.00
2023-05-19T06:30:18.860Z,4708.00
2023-05-19T06:31:18.888Z,4712.00
2023-05-19T06:32:18.852Z,4720.00
2023-05-19T06:33:18.847Z,4724.00
2023-05-19T06:34:18.810Z,4604.00
2023-05-19T06:35:18.806Z,4544.00
2023-05-19T06:36:18.781Z,4512.00
2023-05-19T06:37:18.789Z,4500.00
2023-05-19T06:38:18.781Z,4524.00
2023-05-19T06:39:18.748Z,4208.00
2023-05-19T06:40:18.725Z,4344.00
2023-05-19T06:41:18.760Z,4264.00
2023-05-19T06:42:18.720Z,4296.00
2023-05-19T06:43:18.699Z,4628.00
2023-05-19T06:44:20.474Z,4704.00
2023-05-19T06:45:18.678Z,4784.00
2023-05-19T06:46:18.665Z,4868.00
2023-05-19T06:47:18.631Z,4964.00
2023-05-19T06:48:18.635Z,5132.00
2023-05-19T06:49:18.659Z,5184.00
2023-05-19T06:50:18.616Z,5216.00
2023-05-19T06:51:18.593Z,5240.00
2023-05-19T06:52:18.575Z,5220.00
2023-05-19T06:53:18.571Z,5032.00
2023-05-19T06:54:18.562Z,5060.00
2023-05-19T06:55:18.525Z,5140.00
2023-05-19T06:56:18.534Z,4964.00
2023-05-19T06:57:18.537Z,4968.00
2023-05-19T06:58:18.510Z,5052.00
2023-05-19T06:59:18.489Z,5012.00
2023-05-19T07:00:20.514Z,4992.00
2023-05-19T07:01:18.606Z,5068.00
2023-05-19T07:02:18.465Z,5040.00
2023-05-19T07:03:18.639Z,5276.00
2023-05-19T07:04:18.475Z,5200.00
2023-05-19T07:05:18.548Z,5500.00
2023-05-19T07:06:18.402Z,5656.00
2023-05-19T07:07:18.393Z,5844.00
2023-05-19T07:08:18.357Z,5924.00
2023-05-19T07:09:18.362Z,6108.00
2023-05-19T07:10:18.381Z,6280.00
2023-05-19T07:11:18.324Z,6324.00
2023-05-19T07:12:18.343Z,6384.00
2023-05-19T07:13:18.350Z,6336.00
2023-05-19T07:14:18.274Z,6404.00
2023-05-19T07:15:18.306Z,6360.00
2023-05-19T07:16:18.361Z,6344.00
2023-05-19T07:17:18.235Z,6388.00
2023-05-19T07:18:18.241Z,6360.00
2023-05-19T07:19:18.214Z,6060.00
2023-05-19T07:20:18.214Z,6124.00
2023-05-19T07:21:18.197Z,5984.00
2023-05-19T07:22:18.193Z,6024.00
2023-05-19T07:23:18.174Z,6044.00
2023-05-19T07:24:18.139Z,6060.00
2023-05-19T07:25:18.163Z,6080.00
2023-05-19T07:26:18.137Z,5956.00
2023-05-19T07:27:18.121Z,6420.00
2023-05-19T07:28:18.095Z,6152.00
2023-05-19T07:29:18.124Z,6756.00
2023-05-19T07:30:18.076Z,5832.00
2023-05-19T07:31:18.065Z,5824.00
2023-05-19T07:32:18.113Z,5840.00
2023-05-19T07:33:18.040Z,6084.00
2023-05-19T07:34:18.029Z,5936.00
2023-05-19T07:35:18.011Z,5856.00
2023-05-19T07:36:17.993Z,5680.00
2023-05-19T07:37:17.991Z,5520.00
2023-05-19T07:38:17.954Z,5432.00
2023-05-19T07:39:18.001Z,5280.00
2023-05-19T07:40:17.985Z,5160.00
2023-05-19T07:41:17.971Z,5052.00
2023-05-19T07:42:17.919Z,4896.00
2023-05-19T07:43:17.915Z,5168.00
2023-05-19T07:44:17.894Z,5164.00
2023-05-19T07:45:17.882Z,5092.00
2023-05-19T07:46:17.882Z,5052.00
2023-05-19T07:47:17.851Z,4848.00
2023-05-19T07:48:17.893Z,4924.00
2023-05-19T07:49:17.820Z,4900.00
2023-05-19T07:50:17.806Z,4856.00
2023-05-19T07:51:17.797Z,4832.00
2023-05-19T07:52:17.775Z,4812.00
2023-05-19T07:53:17.779Z,4776.00
2023-05-19T07:54:17.736Z,4732.00
2023-05-19T07:55:17.838Z,4716.00
2023-05-19T07:56:17.730Z,4696.00
2023-05-19T07:57:17.708Z,4684.00
2023-05-19T07:58:17.719Z,4676.00
2023-05-19T07:59:17.699Z,4672.00
2023-05-19T08:00:17.670Z,4668.00
2023-05-19T08:01:17.667Z,4648.00
2023-05-19T08:02:17.650Z,4648.00
2023-05-19T08:03:17.993Z,4640.00
2023-05-19T08:04:17.820Z,4640.00
2023-05-19T08:05:17.596Z,4644.00
2023-05-19T08:06:17.585Z,4640.00
2023-05-19T08:07:17.596Z,4636.00
2023-05-19T08:08:17.552Z,4652.00
2023-05-19T08:09:17.542Z,4672.00
2023-05-19T08:10:17.559Z,4676.00
2023-05-19T08:11:17.530Z,4700.00
2023-05-19T08:12:17.522Z,4708.00
2023-05-19T08:13:17.497Z,4732.00
2023-05-19T08:14:17.500Z,4744.00
2023-05-19T08:15:17.524Z,4748.00
2023-05-19T08:16:17.551Z,4772.00
2023-05-19T08:17:17.502Z,4780.00
2023-05-19T08:18:17.431Z,4580.00
2023-05-19T08:19:17.609Z,4256.00
2023-05-19T08:20:17.435Z,4416.00
2023-05-19T08:21:17.396Z,4604.00
2023-05-19T08:22:17.403Z,4864.00
2023-05-19T08:23:17.445Z,4864.00
2023-05-19T08:24:17.371Z,4884.00
2023-05-19T08:25:17.341Z,4884.00
2023-05-19T08:26:17.339Z,4888.00
2023-05-19T08:27:17.375Z,4904.00
2023-05-19T08:28:17.324Z,4912.00
2023-05-19T08:29:17.288Z,4920.00
2023-05-19T08:30:17.286Z,4932.00
2023-05-19T08:31:17.311Z,4944.00
2023-05-19T08:32:17.269Z,4964.00
2023-05-19T08:33:17.309Z,5000.00
2023-05-19T08:34:19.138Z,5016.00
2023-05-19T08:35:17.237Z,5048.00
2023-05-19T08:36:17.226Z,5064.00
2023-05-19T08:37:17.198Z,5116.00
2023-05-19T08:38:17.188Z,5144.00
2023-05-19T08:39:17.162Z,5176.00
2023-05-19T08:40:17.202Z,5256.00
2023-05-19T08:41:17.132Z,5392.00
2023-05-19T08:42:17.146Z,5428.00
2023-05-19T08:43:17.140Z,5432.00
2023-05-19T08:44:18.903Z,5392.00
2023-05-19T08:45:17.104Z,5380.00
2023-05-19T08:46:17.152Z,5384.00
2023-05-19T08:47:17.095Z,5380.00
2023-05-19T08:48:17.075Z,5392.00
2023-05-19T08:49:17.042Z,5404.00
2023-05-19T08:50:17.026Z,5440.00
2023-05-19T08:51:17.014Z,5488.00
2023-05-19T08:52:16.996Z,5520.00
2023-05-19T08:53:31.944Z,5552.00
2023-05-19T08:54:17.992Z,5600.00
2023-05-19T08:55:16.997Z,5656.00
2023-05-19T08:56:16.946Z,5708.00
2023-05-19T08:57:16.924Z,5732.00
2023-05-19T08:58:17.009Z,5744.00
2023-05-19T08:59:16.917Z,5508.00
2023-05-19T09:00:16.925Z,5944.00
2023-05-19T09:01:17.218Z,6024.00
2023-05-19T09:02:16.868Z,5624.00
2023-05-19T09:03:22.755Z,5440.00
2023-05-19T09:04:17.952Z,5744.00
2023-05-19T09:05:16.870Z,6260.00
2023-05-19T09:06:16.850Z,5644.00
2023-05-19T09:07:16.800Z,4988.00
2023-05-19T09:08:16.781Z,5428.00
2023-05-19T09:09:16.779Z,5732.00
2023-05-19T09:10:16.784Z,5252.00
2023-05-19T09:11:16.755Z,6584.00
2023-05-19T09:12:16.761Z,6116.00
2023-05-19T09:13:16.706Z,6380.00
2023-05-19T09:14:16.709Z,7084.00
2023-05-19T09:15:16.707Z,5780.00
2023-05-19T09:16:16.718Z,5748.00
2023-05-19T09:17:16.686Z,5688.00
2023-05-19T09:18:16.654Z,5912.00
2023-05-19T09:19:23.751Z,7272.00
2023-05-19T09:20:16.634Z,6796.00
2023-05-19T09:21:16.604Z,7052.00
2023-05-19T09:22:16.596Z,7048.00
2023-05-19T09:23:16.854Z,6936.00
2023-05-19T09:24:16.580Z,6788.00
2023-05-19T09:25:16.538Z,6848.00
2023-05-19T09:26:16.534Z,6984.00
2023-05-19T09:27:16.523Z,7160.00
2023-05-19T09:28:16.528Z,7540.00
2023-05-19T09:29:16.536Z,8284.00
2023-05-19T09:30:16.494Z,8836.00
2023-05-19T09:31:16.461Z,9788.00
2023-05-19T09:32:16.484Z,9400.00
2023-05-19T09:33:16.516Z,9100.00
2023-05-19T09:34:16.461Z,8552.00
2023-05-19T09:35:16.426Z,9020.00
2023-05-19T09:36:16.468Z,9056.00
2023-05-19T09:37:16.393Z,9052.00
2023-05-19T09:38:16.379Z,9316.00
2023-05-19T09:39:16.391Z,9272.00
2023-05-19T09:40:16.373Z,9168.00
2023-05-19T09:41:16.346Z,9112.00
2023-05-19T09:42:16.352Z,9140.00
2023-05-19T09:43:16.312Z,9428.00
2023-05-19T09:44:16.298Z,9888.00
2023-05-19T09:45:16.296Z,10288.00
2023-05-19T09:46:16.354Z,10228.00
2023-05-19T09:47:16.258Z,10436.00
2023-05-19T09:48:16.275Z,10012.00
2023-05-19T09:49:16.261Z,9712.00
2023-05-19T09:50:16.253Z,9732.00
2023-05-19T09:51:16.232Z,9836.00
2023-05-19T09:52:16.201Z,10168.00
2023-05-19T09:53:16.171Z,10356.00
2023-05-19T09:54:16.192Z,10748.00
2023-05-19T09:55:16.146Z,10288.00
2023-05-19T09:56:16.146Z,10208.00
2023-05-19T09:57:16.112Z,9844.00
2023-05-19T09:58:16.149Z,9604.00
2023-05-19T09:59:16.112Z,9440.00
2023-05-19T10:00:16.097Z,9360.00
2023-05-19T10:01:16.103Z,10576.00
2023-05-19T10:02:16.055Z,10524.00
2023-05-19T10:03:16.088Z,10452.00
2023-05-19T10:04:16.101Z,10748.00
2023-05-19T10:05:16.090Z,11028.00
2023-05-19T10:06:16.000Z,10740.00
2023-05-19T10:07:16.232Z,10592.00
2023-05-19T10:08:15.981Z,10636.00
2023-05-19T10:09:15.975Z,10224.00
2023-05-19T10:10:15.957Z,10424.00
2023-05-19T10:11:15.934Z,10660.00
2023-05-19T10:12:15.940Z,10584.00
2023-05-19T10:13:15.942Z,11060.00
2023-05-19T10:14:15.906Z,10900.00
2023-05-19T10:15:15.888Z,11072.00
2023-05-19T10:16:15.922Z,11000.00
2023-05-19T10:17:15.896Z,10836.00
2023-05-19T10:18:15.878Z,10524.00
2023-05-19T10:19:15.897Z,10312.00
2023-05-19T10:20:15.882Z,10116.00
2023-05-19T10:21:15.831Z,9792.00
2023-05-19T10:22:15.802Z,9772.00
2023-05-19T10:23:15.806Z,10216.00
2023-05-19T10:24:15.815Z,10612.00
2023-05-19T10:25:15.768Z,10872.00
2023-05-19T10:26:15.752Z,10604.00
2023-05-19T10:27:15.735Z,10120.00
2023-05-19T10:28:15.736Z,9940.00
2023-05-19T10:29:15.720Z,9924.00
2023-05-19T10:30:16.444Z,9788.00
2023-05-19T10:31:15.712Z,9736.00
2023-05-19T10:32:15.713Z,9708.00
2023-05-19T10:33:15.686Z,9848.00
2023-05-19T10:34:15.670Z,10132.00
2023-05-19T10:35:15.679Z,10524.00
2023-05-19T10:36:15.631Z,11016.00
2023-05-19T10:37:15.613Z,11152.00
2023-05-19T10:38:15.603Z,11248.00
2023-05-19T10:39:15.583Z,11308.00
2023-05-19T10:40:15.593Z,11524.00
2023-05-19T10:41:15.542Z,11652.00
2023-05-19T10:42:15.530Z,11500.00
2023-05-19T10:43:15.514Z,11236.00
2023-05-19T10:44:15.583Z,11164.00
2023-05-19T10:45:15.498Z,11356.00
2023-05-19T10:46:15.489Z,11496.00
2023-05-19T10:47:15.640Z,11564.00
2023-05-19T10:48:15.497Z,11576.00
2023-05-19T10:49:15.447Z,11324.00
2023-05-19T10:50:15.555Z,11116.00
2023-05-19T10:51:15.432Z,11256.00
2023-05-19T10:52:15.400Z,11416.00
2023-05-19T10:53:15.384Z,11512.00
2023-05-19T10:54:15.397Z,11548.00
2023-05-19T10:55:15.370Z,12140.00
2023-05-19T10:56:15.364Z,12132.00
2023-05-19T10:57:15.352Z,11984.00
2023-05-19T10:58:15.339Z,11948.00
2023-05-19T10:59:15.304Z,11560.00
2023-05-19T11:00:15.372Z,11504.00
2023-05-19T11:01:15.397Z,11600.00
2023-05-19T11:02:15.483Z,11792.00
2023-05-19T11:03:15.353Z,11812.00
2023-05-19T11:04:15.292Z,11608.00
2023-05-19T11:05:15.241Z,11456.00
2023-05-19T11:06:15.236Z,11448.00
2023-05-19T11:07:15.219Z,11148.00
2023-05-19T11:08:15.198Z,11076.00
2023-05-19T11:09:15.210Z,10608.00
2023-05-19T11:10:15.207Z,10200.00
2023-05-19T11:11:15.217Z,9948.00
2023-05-19T11:12:15.216Z,10628.00
2023-05-19T11:13:15.129Z,10000.00
2023-05-19T11:14:15.151Z,10076.00
2023-05-19T11:15:15.119Z,10636.00
2023-05-19T11:16:15.119Z,10972.00
2023-05-19T11:17:15.095Z,11508.00
2023-05-19T11:18:15.097Z,11924.00
2023-05-19T11:19:15.094Z,12340.00
2023-05-19T11:20:15.068Z,12552.00
2023-05-19T11:21:15.036Z,12492.00
2023-05-19T11:22:15.026Z,12456.00
2023-05-19T11:23:15.077Z,12300.00
2023-05-19T11:24:15.002Z,11640.00
2023-05-19T11:25:14.998Z,11424.00
2023-05-19T11:26:14.975Z,11436.00
2023-05-19T11:27:14.976Z,10900.00
2023-05-19T11:28:14.944Z,10620.00
2023-05-19T11:29:14.932Z,10752.00
2023-05-19T11:30:15.029Z,11024.00
2023-05-19T11:31:14.889Z,11452.00
2023-05-19T11:32:14.988Z,11752.00
2023-05-19T11:33:14.908Z,12096.00
2023-05-19T11:34:14.853Z,12644.00
2023-05-19T11:35:14.895Z,13192.00
2023-05-19T11:36:14.867Z,13376.00
2023-05-19T11:37:14.830Z,13984.00
2023-05-19T11:38:14.851Z,14752.00
2023-05-19T11:39:14.800Z,13824.00
2023-05-19T11:40:14.841Z,13568.00
2023-05-19T11:41:14.790Z,13280.00
2023-05-19T11:42:14.789Z,13192.00
2023-05-19T11:43:14.770Z,13344.00
2023-05-19T11:44:14.745Z,13792.00
2023-05-19T11:45:14.726Z,13504.00
2023-05-19T11:46:14.773Z,13216.00
2023-05-19T11:47:14.706Z,12896.00
2023-05-19T11:48:14.703Z,13024.00
2023-05-19T11:49:14.658Z,12540.00
2023-05-19T11:50:14.663Z,12556.00
2023-05-19T11:51:14.633Z,12800.00
2023-05-19T11:52:14.635Z,12164.00
2023-05-19T11:53:14.624Z,11520.00
2023-05-19T11:54:14.618Z,10812.00
2023-05-19T11:55:14.584Z,11164.00
2023-05-19T11:56:14.575Z,10284.00
2023-05-19T11:57:14.568Z,10648.00
2023-05-19T11:58:14.549Z,11332.00
2023-05-19T11:59:14.523Z,12188.00
2023-05-19T12:00:14.522Z,12776.00
2023-05-19T12:01:14.498Z,13600.00
2023-05-19T12:02:14.525Z,13168.00
2023-05-19T12:03:14.646Z,12748.00
2023-05-19T12:04:14.461Z,13216.00
2023-05-19T12:05:14.485Z,13088.00
2023-05-19T12:06:14.487Z,11952.00
2023-05-19T12:07:14.428Z,13632.00
2023-05-19T12:08:14.420Z,13504.00
2023-05-19T12:09:14.427Z,13632.00
2023-05-19T12:10:14.399Z,12760.00
2023-05-19T12:11:14.378Z,12596.00
2023-05-19T12:12:14.358Z,12004.00
2023-05-19T12:13:14.343Z,11344.00
2023-05-19T12:14:14.346Z,11556.00
2023-05-19T12:15:14.389Z,10880.00
2023-05-19T12:16:14.357Z,10264.00
2023-05-19T12:17:14.357Z,10416.00
2023-05-19T12:18:14.358Z,10344.00
2023-05-19T12:19:14.363Z,10424.00